Time;durP1;ratioP1;P1;durP2;ratioP2;P2;SDS_P1;SDS_P2;PMS_P1;PMS_P2;Temp;Humidity;BMP_temperature;BMP_pressure;BME280_temperature;BME280_humidity;BME280_pressure;Samples;Min_cycle;Max_cycle;Signal;HPM_P1;HPM_P2
2022/04/04 00:01:43;;;;;;;16.47;1.37;;;;;;;;;;4953211;28;20210;-70
2022/04/04 00:04:12;;;;;;;0.73;0.73;;;;;;;;;;4954018;28;20231;-70
2022/04/04 00:06:40;;;;;;;0.53;0.53;;;;;;;;;;4952151;28;20682;-70
2022/04/04 00:09:07;;;;;;;2.27;1.33;;;;;;;;;;4953973;28;20203;-69
2022/04/04 00:11:34;;;;;;;1.00;1.00;;;;;;;;;;4952785;28;21277;-69
2022/04/04 00:14:03;;;;;;;1.07;1.07;;;;;;;;;;4953546;28;20289;-70
2022/04/04 00:16:32;;;;;;;0.60;0.47;;;;;;;;;;4954968;28;20199;-69
2022/04/04 00:19:00;;;;;;;1.13;1.03;;;;;;;;;;4953717;28;20206;-70
2022/04/04 00:21:29;;;;;;;0.70;0.70;;;;;;;;;;4952986;28;20306;-68
2022/04/04 00:23:57;;;;;;;0.70;0.70;;;;;;;;;;4953508;28;20230;-69
2022/04/04 00:26:24;;;;;;;1.63;1.53;;;;;;;;;;4952838;28;20194;-68
2022/04/04 00:28:52;;;;;;;2.20;1.80;;;;;;;;;;4948871;28;20668;-69
2022/04/04 00:31:19;;;;;;;0.47;0.47;;;;;;;;;;4938035;28;20207;-69
2022/04/04 00:33:46;;;;;;;0.30;0.27;;;;;;;;;;4952389;28;20628;-68
2022/04/04 00:36:14;;;;;;;0.40;0.40;;;;;;;;;;4950178;28;20660;-69
2022/04/04 00:38:43;;;;;;;1.20;1.10;;;;;;;;;;4953493;28;20579;-69
2022/04/04 00:41:10;;;;;;;1.23;0.90;;;;;;;;;;4953703;28;20195;-69
2022/04/04 00:43:38;;;;;;;0.80;0.80;;;;;;;;;;4952589;28;20212;-69
2022/04/04 00:46:05;;;;;;;2.00;0.93;;;;;;;;;;4953583;28;20660;-69
2022/04/04 00:48:34;;;;;;;1.37;1.27;;;;;;;;;;4953423;28;20657;-69
2022/04/04 00:51:02;;;;;;;0.63;0.63;;;;;;;;;;4953247;28;20202;-69
2022/04/04 00:53:30;;;;;;;0.50;0.40;;;;;;;;;;4951602;28;21118;-69
2022/04/04 00:56:00;;;;;;;0.90;0.50;;;;;;;;;;4952980;28;20199;-67
2022/04/04 00:58:29;;;;;;;0.80;0.80;;;;;;;;;;4953568;28;20254;-69
2022/04/04 01:00:57;;;;;;;4.17;1.93;;;;;;;;;;4952477;28;20211;-70
2022/04/04 01:03:25;;;;;;;0.50;0.50;;;;;;;;;;4951486;28;20206;-69
2022/04/04 01:05:52;;;;;;;2.30;1.00;;;;;;;;;;4952105;28;20238;-69
2022/04/04 01:08:20;;;;;;;3.30;1.47;;;;;;;;;;4953387;28;20297;-70
2022/04/04 01:10:47;;;;;;;1.20;0.50;;;;;;;;;;4953241;28;20206;-69
2022/04/04 01:13:16;;;;;;;0.67;0.60;;;;;;;;;;4951271;28;20289;-70
2022/04/04 01:15:43;;;;;;;0.37;0.30;;;;;;;;;;4952839;28;20286;-70
2022/04/04 01:18:11;;;;;;;1.17;1.17;;;;;;;;;;4953136;28;20563;-69
2022/04/04 01:20:40;;;;;;;0.83;0.83;;;;;;;;;;4953346;28;20282;-70
2022/04/04 01:23:07;;;;;;;1.23;1.13;;;;;;;;;;4951579;28;20207;-70
2022/04/04 01:25:37;;;;;;;0.40;0.40;;;;;;;;;;4952117;28;20232;-69
2022/04/04 01:28:05;;;;;;;0.93;0.77;;;;;;;;;;4952117;28;20235;-69
2022/04/04 01:30:33;;;;;;;0.87;0.73;;;;;;;;;;4952545;28;20205;-69
2022/04/04 01:33:00;;;;;;;0.83;0.77;;;;;;;;;;4948240;28;20207;-70
2022/04/04 01:35:28;;;;;;;2.50;1.70;;;;;;;;;;4953017;28;20397;-70
2022/04/04 01:37:55;;;;;;;1.30;0.77;;;;;;;;;;4951816;28;20207;-70
2022/04/04 01:40:22;;;;;;;1.10;1.10;;;;;;;;;;4952265;29;20207;-70
2022/04/04 01:42:52;;;;;;;0.63;0.63;;;;;;;;;;4952112;28;20203;-70
2022/04/04 01:46:23;;;;;;;0.40;0.40;;;;;;;;;;4951849;28;20233;-70
2022/04/04 01:48:08;;;;;;;1.70;1.60;;;;;;;;;;4956350;29;20700;-70
2022/04/04 01:50:36;;;;;;;0.83;0.83;;;;;;;;;;4956659;28;20624;-70
2022/04/04 01:55:48;;;;;;;0.33;0.33;;;;;;;;;;4955144;28;20626;-69
2022/04/04 01:58:17;;;;;;;1.90;1.27;;;;;;;;;;4956066;28;20195;-71
2022/04/04 02:00:44;;;;;;;0.70;0.70;;;;;;;;;;4956191;28;20195;-70
2022/04/04 02:03:12;;;;;;;0.40;0.40;;;;;;;;;;4955817;28;20270;-70
2022/04/04 02:05:39;;;;;;;1.47;1.37;;;;;;;;;;4956533;28;20231;-69
2022/04/04 02:08:07;;;;;;;0.57;0.57;;;;;;;;;;4955760;28;20235;-69
2022/04/04 02:10:34;;;;;;;1.93;0.83;;;;;;;;;;4955926;28;20297;-69
2022/04/04 02:13:02;;;;;;;1.73;0.77;;;;;;;;;;4954348;28;20203;-69
2022/04/04 02:15:31;;;;;;;0.00;0.00;;;;;;;;;;4956157;28;20221;-70
2022/04/04 02:17:58;;;;;;;0.60;0.50;;;;;;;;;;4955820;28;20205;-70
2022/04/04 02:20:25;;;;;;;1.27;1.03;;;;;;;;;;4955828;28;20285;-70
2022/04/04 02:22:53;;;;;;;0.57;0.57;;;;;;;;;;4954100;28;20253;-70
2022/04/04 02:25:20;;;;;;;0.10;0.10;;;;;;;;;;4955616;28;20702;-69
2022/04/04 02:27:48;;;;;;;11.37;1.40;;;;;;;;;;4955574;28;20367;-69
2022/04/04 02:30:15;;;;;;;0.60;0.60;;;;;;;;;;4955824;28;20222;-68
2022/04/04 02:32:44;;;;;;;0.10;0.00;;;;;;;;;;4954710;28;20207;-69
2022/04/04 02:35:12;;;;;;;1.43;0.50;;;;;;;;;;4954676;28;20290;-70
2022/04/04 02:37:39;;;;;;;2.20;1.33;;;;;;;;;;4954496;28;20579;-69
2022/04/04 02:40:07;;;;;;;0.60;0.60;;;;;;;;;;4955673;28;20203;-69
2022/04/04 02:42:34;;;;;;;2.07;1.97;;;;;;;;;;4953889;28;20203;-69
2022/04/04 02:45:02;;;;;;;0.23;0.23;;;;;;;;;;4955695;28;20234;-70
2022/04/04 02:47:29;;;;;;;0.83;0.83;;;;;;;;;;4955321;28;20293;-70
2022/04/04 02:49:58;;;;;;;2.57;1.40;;;;;;;;;;4954211;28;20735;-69
2022/04/04 02:52:26;;;;;;;1.53;1.43;;;;;;;;;;4954336;28;20218;-69
2022/04/04 02:54:53;;;;;;;0.60;0.60;;;;;;;;;;4955425;28;20607;-70
2022/04/04 02:57:19;;;;;;;1.43;1.33;;;;;;;;;;4953351;28;20592;-70
2022/04/04 02:59:47;;;;;;;0.57;0.57;;;;;;;;;;4954971;28;20202;-69
2022/04/04 03:02:14;;;;;;;0.07;0.07;;;;;;;;;;4953924;28;20565;-69
2022/04/04 03:04:42;;;;;;;2.57;1.03;;;;;;;;;;4954791;28;20237;-69
2022/04/04 03:07:11;;;;;;;1.20;0.73;;;;;;;;;;4954091;28;20601;-69
2022/04/04 03:09:39;;;;;;;1.30;1.07;;;;;;;;;;4936287;28;20212;-70
2022/04/04 03:12:09;;;;;;;1.00;0.60;;;;;;;;;;4954437;28;20203;-70
2022/04/04 03:14:36;;;;;;;1.77;1.27;;;;;;;;;;4954928;28;20572;-70
2022/04/04 03:17:04;;;;;;;1.13;0.90;;;;;;;;;;4953850;28;20294;-70
2022/04/04 03:19:31;;;;;;;0.30;0.30;;;;;;;;;;4954722;28;20230;-69
2022/04/04 03:21:58;;;;;;;1.50;1.40;;;;;;;;;;4953945;28;20206;-70
2022/04/04 03:24:27;;;;;;;5.03;1.37;;;;;;;;;;4954849;28;20199;-70
2022/04/04 03:26:55;;;;;;;1.23;1.13;;;;;;;;;;4954781;28;20199;-70
2022/04/04 03:29:22;;;;;;;1.67;1.30;;;;;;;;;;4945920;28;20214;-68
2022/04/04 03:31:49;;;;;;;1.53;1.43;;;;;;;;;;4938644;29;20205;-68
2022/04/04 03:34:17;;;;;;;6.73;2.20;;;;;;;;;;4954675;28;20198;-69
2022/04/04 03:36:44;;;;;;;1.23;1.17;;;;;;;;;;4954385;28;20686;-69
2022/04/04 03:39:13;;;;;;;0.63;0.63;;;;;;;;;;4953690;28;20286;-69
2022/04/04 03:41:43;;;;;;;6.27;1.73;;;;;;;;;;4953407;28;20569;-68
2022/04/04 03:44:11;;;;;;;0.97;0.97;;;;;;;;;;4953393;28;20665;-69
2022/04/04 03:46:39;;;;;;;0.73;0.73;;;;;;;;;;4954106;28;20234;-71
2022/04/04 03:49:07;;;;;;;2.70;2.30;;;;;;;;;;4954459;28;20199;-71
2022/04/04 03:51:34;;;;;;;1.90;1.80;;;;;;;;;;4953489;28;20199;-69
2022/04/04 03:54:02;;;;;;;1.43;1.33;;;;;;;;;;4954169;28;20218;-70
2022/04/04 03:56:30;;;;;;;5.20;3.50;;;;;;;;;;4954169;28;20206;-70
2022/04/04 03:58:59;;;;;;;2.30;1.67;;;;;;;;;;4954009;28;20198;-70
2022/04/04 04:01:29;;;;;;;0.70;0.63;;;;;;;;;;4953959;28;20640;-70
2022/04/04 04:03:57;;;;;;;1.60;1.50;;;;;;;;;;4948323;28;20254;-71
2022/04/04 04:06:24;;;;;;;3.30;2.63;;;;;;;;;;4953431;28;20334;-73
2022/04/04 04:08:52;;;;;;;1.77;1.67;;;;;;;;;;4954050;28;20553;-70
2022/04/04 04:11:19;;;;;;;1.23;1.13;;;;;;;;;;4953783;28;20561;-70
2022/04/04 04:13:47;;;;;;;0.73;0.67;;;;;;;;;;4951725;28;20286;-70
2022/04/04 04:16:17;;;;;;;3.97;2.77;;;;;;;;;;4952967;28;20207;-69
2022/04/04 04:18:44;;;;;;;2.00;1.73;;;;;;;;;;4954014;28;20680;-69
2022/04/04 04:21:13;;;;;;;2.50;2.30;;;;;;;;;;4953657;28;20209;-70
2022/04/04 04:23:40;;;;;;;2.43;2.23;;;;;;;;;;4952620;28;20210;-70
2022/04/04 04:26:09;;;;;;;1.53;1.37;;;;;;;;;;4953633;28;20573;-70
2022/04/04 04:28:36;;;;;;;4.13;2.00;;;;;;;;;;4952930;28;20596;-69
2022/04/04 04:31:04;;;;;;;1.20;0.70;;;;;;;;;;4953802;28;20199;-70
2022/04/04 04:33:33;;;;;;;2.20;1.90;;;;;;;;;;4950867;28;20314;-69
2022/04/04 04:36:01;;;;;;;0.97;0.90;;;;;;;;;;4952781;28;20211;-70
2022/04/04 04:38:30;;;;;;;3.00;2.80;;;;;;;;;;4952729;28;20207;-69
2022/04/04 04:40:57;;;;;;;1.27;1.10;;;;;;;;;;4944823;28;20286;-70
2022/04/04 04:43:25;;;;;;;3.43;2.00;;;;;;;;;;4967925;28;20302;-70
2022/04/04 04:45:52;;;;;;;1.43;1.33;;;;;;;;;;4933945;29;20318;-71
2022/04/04 04:48:20;;;;;;;1.93;1.83;;;;;;;;;;4934298;29;20292;-69
2022/04/04 04:50:49;;;;;;;0.43;0.43;;;;;;;;;;4934214;29;20207;-70
2022/04/04 04:53:17;;;;;;;2.30;2.03;;;;;;;;;;4934073;28;20214;-69
2022/04/04 04:55:45;;;;;;;3.63;3.37;;;;;;;;;;4951209;28;20201;-69
2022/04/04 04:58:12;;;;;;;1.77;1.37;;;;;;;;;;4953238;28;20202;-69
2022/04/04 05:00:40;;;;;;;1.63;1.53;;;;;;;;;;4951264;28;20653;-69
2022/04/04 05:03:26;;;;;;;1.47;1.37;;;;;;;;;;4952522;28;20590;-69
2022/04/04 05:05:56;;;;;;;3.47;1.47;;;;;;;;;;4952949;28;20234;-69
2022/04/04 05:08:23;;;;;;;0.40;0.40;;;;;;;;;;4952392;28;20203;-68
2022/04/04 05:10:52;;;;;;;2.33;1.90;;;;;;;;;;4952323;28;20227;-70
2022/04/04 05:13:21;;;;;;;0.77;0.77;;;;;;;;;;4953139;28;20680;-69
2022/04/04 05:15:48;;;;;;;0.40;0.40;;;;;;;;;;4952924;28;20256;-70
2022/04/04 05:18:16;;;;;;;5.63;3.70;;;;;;;;;;4953007;28;20199;-69
2022/04/04 05:20:43;;;;;;;1.10;0.97;;;;;;;;;;4952025;28;20290;-69
2022/04/04 05:23:13;;;;;;;3.73;2.07;;;;;;;;;;4956045;28;20206;-69
2022/04/04 05:25:40;;;;;;;4.13;3.50;;;;;;;;;;4956693;28;20286;-70
2022/04/04 05:28:08;;;;;;;2.97;1.57;;;;;;;;;;4956781;28;20199;-69
2022/04/04 05:30:36;;;;;;;1.83;1.73;;;;;;;;;;4955789;28;20214;-70
2022/04/04 05:33:03;;;;;;;2.53;2.33;;;;;;;;;;4956899;28;20203;-69
2022/04/04 05:35:30;;;;;;;3.87;2.93;;;;;;;;;;4953502;28;20213;-69
2022/04/04 05:37:59;;;;;;;2.40;2.20;;;;;;;;;;4954752;28;20210;-70
2022/04/04 05:40:27;;;;;;;3.40;2.87;;;;;;;;;;4955582;28;20214;-70
2022/04/04 05:42:55;;;;;;;1.00;0.90;;;;;;;;;;4937229;29;20665;-70
2022/04/04 05:45:23;;;;;;;1.83;1.73;;;;;;;;;;4937246;29;20206;-71
2022/04/04 05:47:52;;;;;;;1.03;0.93;;;;;;;;;;4937455;29;20245;-70
2022/04/04 05:50:20;;;;;;;2.70;2.50;;;;;;;;;;4937692;29;20200;-70
2022/04/04 05:52:47;;;;;;;3.03;1.63;;;;;;;;;;4956506;28;20199;-70
2022/04/04 05:55:15;;;;;;;3.33;2.47;;;;;;;;;;4956290;28;20203;-70
2022/04/04 05:57:44;;;;;;;5.27;4.50;;;;;;;;;;4955846;28;20744;-70
2022/04/04 06:00:13;;;;;;;2.63;1.90;;;;;;;;;;4955775;28;20302;-70
2022/04/04 06:02:41;;;;;;;2.33;1.90;;;;;;;;;;4955070;28;20283;-70
2022/04/04 06:05:09;;;;;;;1.73;1.30;;;;;;;;;;4955409;28;20213;-69
2022/04/04 06:07:37;;;;;;;2.37;2.27;;;;;;;;;;4952041;28;20238;-69
2022/04/04 06:10:05;;;;;;;2.80;2.60;;;;;;;;;;4955835;28;20254;-71
2022/04/04 06:12:34;;;;;;;0.73;0.73;;;;;;;;;;4956196;28;20241;-71
2022/04/04 06:15:03;;;;;;;2.80;2.30;;;;;;;;;;4954009;28;20203;-70
2022/04/04 06:17:30;;;;;;;0.27;0.27;;;;;;;;;;4955380;28;20206;-70
2022/04/04 06:19:58;;;;;;;4.77;1.83;;;;;;;;;;4954812;28;20203;-70
2022/04/04 06:22:25;;;;;;;1.23;1.17;;;;;;;;;;4946125;28;20286;-70
2022/04/04 06:24:53;;;;;;;1.73;1.63;;;;;;;;;;4955676;28;20213;-70
2022/04/04 06:27:20;;;;;;;1.83;1.03;;;;;;;;;;4951551;28;20338;-70
2022/04/04 06:29:47;;;;;;;1.30;1.20;;;;;;;;;;4955358;28;20286;-70
2022/04/04 06:32:16;;;;;;;7.80;3.40;;;;;;;;;;4955698;28;20210;-70
2022/04/04 06:34:44;;;;;;;0.70;0.70;;;;;;;;;;4955597;28;20572;-70
2022/04/04 06:37:11;;;;;;;5.80;4.23;;;;;;;;;;4954143;28;20202;-70
2022/04/04 06:39:39;;;;;;;2.90;2.00;;;;;;;;;;4955255;28;20747;-70
2022/04/04 06:42:06;;;;;;;0.80;0.77;;;;;;;;;;4955680;28;20241;-71
2022/04/04 06:44:34;;;;;;;1.47;1.37;;;;;;;;;;4955374;28;20656;-71
2022/04/04 06:47:01;;;;;;;3.67;2.27;;;;;;;;;;4954457;28;20240;-72
2022/04/04 06:49:30;;;;;;;2.30;1.63;;;;;;;;;;4954330;28;20716;-70
2022/04/04 06:51:57;;;;;;;1.40;1.30;;;;;;;;;;4955091;28;20631;-71
2022/04/04 06:54:27;;;;;;;2.93;1.63;;;;;;;;;;4954325;28;20206;-70
2022/04/04 06:56:55;;;;;;;1.67;1.33;;;;;;;;;;4953661;28;20203;-70
2022/04/04 06:59:23;;;;;;;4.63;3.83;;;;;;;;;;4954593;28;20262;-71
2022/04/04 07:01:51;;;;;;;2.60;2.40;;;;;;;;;;4954783;28;20203;-70
2022/04/04 07:04:18;;;;;;;3.63;3.33;;;;;;;;;;4954994;28;20226;-70
2022/04/04 07:06:47;;;;;;;1.23;1.17;;;;;;;;;;4953423;28;20246;-71
2022/04/04 07:09:14;;;;;;;2.87;2.50;;;;;;;;;;4954629;28;20238;-70
2022/04/04 07:11:42;;;;;;;10.90;4.70;;;;;;;;;;4954713;28;20203;-71
2022/04/04 07:14:10;;;;;;;5.27;2.37;;;;;;;;;;4955202;28;20215;-70
2022/04/04 07:16:38;;;;;;;3.80;3.00;;;;;;;;;;4954668;28;20195;-68
2022/04/04 07:19:05;;;;;;;2.27;1.60;;;;;;;;;;4954638;28;20239;-69
2022/04/04 07:21:33;;;;;;;5.03;3.17;;;;;;;;;;4952501;28;20238;-69
2022/04/04 07:24:01;;;;;;;25.57;2.70;;;;;;;;;;4952680;28;20291;-70
2022/04/04 07:26:29;;;;;;;1.57;1.30;;;;;;;;;;4949000;28;20226;-67
2022/04/04 07:28:57;;;;;;;10.37;3.87;;;;;;;;;;4945243;28;20226;-68
2022/04/04 07:31:24;;;;;;;3.27;2.93;;;;;;;;;;4951754;28;20199;-68
2022/04/04 07:33:51;;;;;;;5.33;3.83;;;;;;;;;;4949644;28;20203;-68
2022/04/04 07:36:19;;;;;;;6.03;4.13;;;;;;;;;;4945212;28;20732;-68
2022/04/04 07:38:46;;;;;;;2.67;2.40;;;;;;;;;;4953562;28;20199;-68
2022/04/04 07:41:15;;;;;;;11.10;6.77;;;;;;;;;;4952504;28;20225;-69
2022/04/04 07:43:43;;;;;;;3.07;2.57;;;;;;;;;;4952084;28;20302;-68
2022/04/04 07:46:10;;;;;;;7.27;2.60;;;;;;;;;;4952270;28;20690;-69
2022/04/04 07:48:39;;;;;;;4.70;3.60;;;;;;;;;;4954528;28;20202;-69
2022/04/04 07:51:07;;;;;;;4.23;3.47;;;;;;;;;;4954361;28;20297;-67
2022/04/04 07:53:34;;;;;;;4.97;3.70;;;;;;;;;;4947268;28;20263;-67
2022/04/04 07:56:01;;;;;;;9.33;4.77;;;;;;;;;;4940026;28;20231;-67
2022/04/04 07:58:30;;;;;;;6.13;4.07;;;;;;;;;;4938221;28;20231;-68
2022/04/04 08:00:58;;;;;;;3.03;2.83;;;;;;;;;;4935818;28;20238;-67
2022/04/04 08:03:25;;;;;;;5.27;3.57;;;;;;;;;;4945800;28;20679;-67
2022/04/04 08:05:54;;;;;;;4.97;3.77;;;;;;;;;;4945800;28;20199;-67
2022/04/04 08:08:21;;;;;;;5.83;3.70;;;;;;;;;;4947214;28;20239;-67
2022/04/04 08:10:49;;;;;;;4.63;3.93;;;;;;;;;;4948613;28;20199;-67
2022/04/04 08:13:16;;;;;;;6.03;5.17;;;;;;;;;;4949858;28;20694;-73
2022/04/04 08:15:45;;;;;;;3.17;2.80;;;;;;;;;;4948768;28;20199;-69
2022/04/04 08:18:13;;;;;;;6.67;5.37;;;;;;;;;;4949278;28;20245;-69
2022/04/04 08:20:40;;;;;;;4.07;3.70;;;;;;;;;;4946058;29;20291;-68
2022/04/04 08:23:08;;;;;;;8.93;3.27;;;;;;;;;;4942969;28;20201;-68
2022/04/04 08:25:35;;;;;;;4.80;2.97;;;;;;;;;;4943614;28;20237;-68
2022/04/04 08:28:03;;;;;;;3.17;2.00;;;;;;;;;;4946858;28;20318;-68
2022/04/04 08:30:30;;;;;;;6.87;4.07;;;;;;;;;;4950186;29;20242;-67
2022/04/04 08:32:59;;;;;;;5.23;3.37;;;;;;;;;;4946721;29;20213;-69
2022/04/04 08:35:27;;;;;;;5.83;3.33;;;;;;;;;;4941656;28;20290;-71
2022/04/04 08:37:54;;;;;;;4.00;3.63;;;;;;;;;;4951606;28;20217;-69
2022/04/04 08:40:22;;;;;;;3.50;3.20;;;;;;;;;;4946525;28;20210;-70
2022/04/04 08:42:49;;;;;;;2.87;2.67;;;;;;;;;;4939643;29;20203;-68
2022/04/04 08:45:17;;;;;;;4.90;3.67;;;;;;;;;;4941907;28;20200;-70
2022/04/04 08:47:45;;;;;;;2.90;2.47;;;;;;;;;;4947662;28;20241;-71
2022/04/04 08:50:14;;;;;;;3.83;3.40;;;;;;;;;;4945389;28;20199;-73
2022/04/04 08:52:43;;;;;;;4.50;3.83;;;;;;;;;;4951278;29;20203;-69
2022/04/04 08:55:13;;;;;;;5.70;3.33;;;;;;;;;;4942252;28;20283;-76
2022/04/04 08:57:40;;;;;;;4.77;4.27;;;;;;;;;;4950486;28;20553;-71
2022/04/04 09:00:09;;;;;;;2.57;2.30;;;;;;;;;;4945375;29;20575;-72
2022/04/04 09:02:37;;;;;;;3.60;2.93;;;;;;;;;;4946136;28;20752;-71
2022/04/04 09:05:06;;;;;;;6.27;3.33;;;;;;;;;;4945328;29;20592;-71
2022/04/04 09:07:35;;;;;;;4.50;2.07;;;;;;;;;;4945685;28;20256;-68
2022/04/04 09:10:02;;;;;;;1.97;1.80;;;;;;;;;;4944227;28;20650;-70
2022/04/04 09:12:29;;;;;;;3.13;2.73;;;;;;;;;;4945692;28;20207;-71
2022/04/04 09:14:58;;;;;;;1.30;1.23;;;;;;;;;;4946274;29;20212;-72
2022/04/04 09:17:28;;;;;;;1.77;1.67;;;;;;;;;;4945857;28;20207;-71
2022/04/04 09:19:55;;;;;;;2.97;2.63;;;;;;;;;;4945047;28;20208;-75
2022/04/04 09:22:24;;;;;;;3.13;2.57;;;;;;;;;;4945539;28;20557;-72
2022/04/04 09:24:55;;;;;;;1.77;1.67;;;;;;;;;;4945474;28;20302;-72
2022/04/04 09:27:24;;;;;;;3.37;3.13;;;;;;;;;;4946155;29;20232;-70
2022/04/04 09:29:54;;;;;;;4.50;2.83;;;;;;;;;;4946161;28;20290;-72
2022/04/04 09:32:22;;;;;;;2.87;2.53;;;;;;;;;;4935793;28;20728;-72
2022/04/04 09:34:54;;;;;;;2.20;2.03;;;;;;;;;;4933202;28;20242;-72
2022/04/04 09:37:23;;;;;;;2.60;2.03;;;;;;;;;;4942488;28;20242;-70
2022/04/04 09:39:50;;;;;;;1.17;0.80;;;;;;;;;;4945851;29;20208;-71
2022/04/04 09:42:21;;;;;;;1.83;1.67;;;;;;;;;;4945078;28;20211;-71
2022/04/04 09:44:58;;;;;;;2.30;1.70;;;;;;;;;;4944791;29;20699;-72
2022/04/04 09:47:45;;;;;;;4.87;2.60;;;;;;;;;;4944701;28;20282;-72
2022/04/04 09:50:29;;;;;;;1.73;1.63;;;;;;;;;;4945718;29;20274;-70
2022/04/04 09:52:57;;;;;;;0.83;0.83;;;;;;;;;;4943992;28;20215;-73
2022/04/04 09:55:28;;;;;;;1.83;1.70;;;;;;;;;;4944020;28;20298;-73
2022/04/04 09:57:57;;;;;;;1.27;0.93;;;;;;;;;;4945827;28;20607;-71
2022/04/04 10:00:25;;;;;;;4.70;4.30;;;;;;;;;;4944789;28;20203;-70
2022/04/04 10:02:56;;;;;;;1.03;1.03;;;;;;;;;;4943944;29;20563;-72
2022/04/04 10:05:25;;;;;;;2.50;1.87;;;;;;;;;;4944526;28;20203;-72
2022/04/04 10:07:55;;;;;;;2.37;1.50;;;;;;;;;;4946587;28;20241;-74
2022/04/04 10:10:23;;;;;;;1.17;1.13;;;;;;;;;;4947320;28;20567;-75
2022/04/04 10:12:51;;;;;;;0.33;0.33;;;;;;;;;;4947885;29;20236;-78
2022/04/04 10:15:20;;;;;;;1.17;1.17;;;;;;;;;;4945678;29;20218;-72
2022/04/04 10:17:47;;;;;;;2.63;2.43;;;;;;;;;;4943694;29;20290;-71
2022/04/04 10:20:16;;;;;;;0.70;0.70;;;;;;;;;;4944362;28;20240;-72
2022/04/04 10:22:44;;;;;;;2.00;1.90;;;;;;;;;;4943626;28;20294;-72
2022/04/04 10:25:13;;;;;;;2.00;1.87;;;;;;;;;;4944622;28;20218;-70
2022/04/04 10:27:40;;;;;;;2.93;2.20;;;;;;;;;;4944687;28;20245;-70
2022/04/04 10:30:10;;;;;;;2.13;1.90;;;;;;;;;;4944018;28;20200;-73
2022/04/04 10:32:49;;;;;;;2.13;2.00;;;;;;;;;;4943986;28;20206;-73
2022/04/04 10:35:20;;;;;;;3.43;3.13;;;;;;;;;;4944435;28;20687;-72
2022/04/04 10:37:48;;;;;;;1.57;0.67;;;;;;;;;;4943055;28;20208;-72
2022/04/04 10:40:23;;;;;;;3.17;2.07;;;;;;;;;;4944356;28;20215;-72
2022/04/04 10:43:18;;;;;;;1.53;1.43;;;;;;;;;;4945008;29;20211;-71
2022/04/04 10:45:52;;;;;;;1.70;1.60;;;;;;;;;;4911237;28;20302;-72
2022/04/04 10:48:21;;;;;;;2.27;1.70;;;;;;;;;;4942825;28;20238;-72
2022/04/04 10:50:49;;;;;;;1.40;1.30;;;;;;;;;;4944118;28;20207;-72
2022/04/04 10:53:16;;;;;;;2.20;2.00;;;;;;;;;;4942266;28;20221;-72
2022/04/04 10:55:48;;;;;;;1.57;1.47;;;;;;;;;;4943386;29;20199;-73
2022/04/04 10:58:21;;;;;;;2.03;1.87;;;;;;;;;;4944736;28;20616;-73
2022/04/04 11:00:56;;;;;;;5.93;2.37;;;;;;;;;;4943151;28;20210;-70
2022/04/04 11:03:32;;;;;;;2.30;2.10;;;;;;;;;;4944718;29;20203;-73
2022/04/04 11:09:16;;;;;;;2.67;1.67;;;;;;;;;;4943932;28;20284;-72
2022/04/04 11:11:45;;;;;;;2.40;2.17;;;;;;;;;;4943550;28;20206;-72
2022/04/04 11:17:17;;;;;;;2.70;1.70;;;;;;;;;;4940024;28;20207;-73
2022/04/04 11:19:46;;;;;;;1.17;1.13;;;;;;;;;;4943609;28;20204;-74
2022/04/04 11:22:51;;;;;;;4.00;2.10;;;;;;;;;;4943170;29;20696;-72
2022/04/04 11:28:04;;;;;;;4.90;2.23;;;;;;;;;;4944553;28;20237;-73
2022/04/04 11:30:31;;;;;;;1.73;1.63;;;;;;;;;;4943138;28;20572;-71
2022/04/04 11:32:59;;;;;;;1.20;1.03;;;;;;;;;;4940718;28;20207;-71
2022/04/04 11:35:30;;;;;;;1.83;1.30;;;;;;;;;;4945270;28;20203;-75
2022/04/04 11:40:55;;;;;;;2.03;1.40;;;;;;;;;;4938600;28;20203;-75
2022/04/04 11:43:24;;;;;;;0.93;0.77;;;;;;;;;;4948198;28;20570;-72
2022/04/04 11:45:53;;;;;;;5.13;2.00;;;;;;;;;;4946377;28;20940;-72
2022/04/04 11:48:25;;;;;;;2.67;1.77;;;;;;;;;;4946904;28;21149;-72
2022/04/04 11:50:57;;;;;;;1.70;1.53;;;;;;;;;;4943705;28;20699;-71
2022/04/04 11:53:26;;;;;;;1.27;1.17;;;;;;;;;;4940289;29;20680;-72
2022/04/04 11:56:00;;;;;;;1.40;1.10;;;;;;;;;;4944169;29;20212;-71
2022/04/04 11:58:27;;;;;;;1.30;1.27;;;;;;;;;;4943693;29;20238;-72
2022/04/04 12:03:43;;;;;;;2.53;2.17;;;;;;;;;;4945281;28;20213;-72
2022/04/04 12:06:12;;;;;;;1.93;1.43;;;;;;;;;;4942018;29;20286;-72
2022/04/04 12:09:00;;;;;;;0.97;0.93;;;;;;;;;;4943102;28;20241;-72
2022/04/04 12:11:28;;;;;;;0.90;0.90;;;;;;;;;;4943528;29;20198;-72
2022/04/04 12:13:58;;;;;;;0.20;0.20;;;;;;;;;;4943471;28;20286;-72
2022/04/04 12:16:25;;;;;;;1.07;1.03;;;;;;;;;;4944650;29;20212;-72
2022/04/04 12:18:57;;;;;;;1.67;1.53;;;;;;;;;;4943256;29;20215;-72
2022/04/04 12:21:27;;;;;;;0.90;0.90;;;;;;;;;;4941691;29;20230;-72
2022/04/04 12:27:06;;;;;;;2.33;0.47;;;;;;;;;;4873129;29;20260;-71
2022/04/04 12:29:40;;;;;;;3.50;1.43;;;;;;;;;;4936229;28;20243;-71
2022/04/04 12:32:14;;;;;;;3.37;0.70;;;;;;;;;;4947809;28;20211;-70
2022/04/04 12:34:42;;;;;;;1.30;0.43;;;;;;;;;;4947609;28;20198;-70
2022/04/04 12:37:11;;;;;;;0.20;0.20;;;;;;;;;;4949660;29;20656;-73
2022/04/04 12:39:38;;;;;;;0.23;0.23;;;;;;;;;;4941947;28;20663;-72
2022/04/04 12:42:08;;;;;;;0.37;0.37;;;;;;;;;;4947744;28;20203;-72
2022/04/04 12:44:36;;;;;;;0.00;0.00;;;;;;;;;;4942404;29;20206;-73
2022/04/04 12:47:06;;;;;;;0.00;0.00;;;;;;;;;;4940198;28;20207;-72
2022/04/04 12:49:34;;;;;;;0.00;0.00;;;;;;;;;;4942047;29;20240;-72
2022/04/04 12:52:03;;;;;;;0.00;0.00;;;;;;;;;;4941423;28;20210;-72
2022/04/04 12:54:34;;;;;;;0.00;0.00;;;;;;;;;;4944240;29;20245;-71
2022/04/04 12:57:02;;;;;;;0.00;0.00;;;;;;;;;;4940252;28;20259;-71
2022/04/04 12:59:29;;;;;;;0.00;0.00;;;;;;;;;;4946019;29;20294;-73
2022/04/04 13:02:04;;;;;;;0.00;0.00;;;;;;;;;;4946983;28;20645;-72
2022/04/04 13:04:32;;;;;;;0.00;0.00;;;;;;;;;;4941344;29;20237;-73
2022/04/04 13:07:01;;;;;;;0.00;0.00;;;;;;;;;;4941619;28;20250;-73
2022/04/04 13:09:30;;;;;;;0.00;0.00;;;;;;;;;;4945773;28;20601;-70
2022/04/04 13:12:00;;;;;;;0.00;0.00;;;;;;;;;;4945459;29;20235;-72
2022/04/04 13:14:28;;;;;;;0.00;0.00;;;;;;;;;;4941112;28;20728;-73
2022/04/04 13:17:00;;;;;;;0.00;0.00;;;;;;;;;;4940941;28;20569;-73
2022/04/04 13:19:27;;;;;;;0.00;0.00;;;;;;;;;;4946888;28;20192;-72
2022/04/04 13:21:55;;;;;;;0.00;0.00;;;;;;;;;;4947442;28;20211;-71
2022/04/04 13:24:24;;;;;;;0.00;0.00;;;;;;;;;;4940794;28;20235;-72
2022/04/04 13:26:52;;;;;;;0.00;0.00;;;;;;;;;;4941567;28;20199;-71
2022/04/04 13:29:22;;;;;;;0.00;0.00;;;;;;;;;;4948668;29;20245;-71
2022/04/04 13:31:50;;;;;;;0.00;0.00;;;;;;;;;;4952044;28;20211;-71
2022/04/04 13:34:17;;;;;;;0.00;0.00;;;;;;;;;;4941238;28;20207;-71
2022/04/04 13:36:44;;;;;;;0.00;0.00;;;;;;;;;;4946767;28;20203;-71
2022/04/04 13:39:13;;;;;;;0.00;0.00;;;;;;;;;;4941262;28;20414;-71
2022/04/04 13:41:42;;;;;;;0.00;0.00;;;;;;;;;;4942761;28;20286;-70
2022/04/04 13:44:10;;;;;;;0.00;0.00;;;;;;;;;;4956264;29;20207;-70
2022/04/04 13:46:39;;;;;;;0.00;0.00;;;;;;;;;;4956396;28;20652;-71
2022/04/04 13:49:07;;;;;;;0.00;0.00;;;;;;;;;;4955954;28;20227;-69
2022/04/04 13:51:34;;;;;;;0.00;0.00;;;;;;;;;;4956242;28;20191;-69
2022/04/04 13:54:03;;;;;;;0.00;0.00;;;;;;;;;;4956399;28;20660;-69
2022/04/04 13:56:31;;;;;;;0.00;0.00;;;;;;;;;;4956596;28;20239;-69
2022/04/04 13:58:59;;;;;;;0.00;0.00;;;;;;;;;;4953361;28;20200;-68
2022/04/04 14:01:28;;;;;;;0.00;0.00;;;;;;;;;;4951899;28;20202;-69
2022/04/04 14:03:57;;;;;;;0.00;0.00;;;;;;;;;;4955038;28;20203;-73
2022/04/04 14:06:25;;;;;;;0.00;0.00;;;;;;;;;;4959756;28;20256;-70
2022/04/04 14:08:53;;;;;;;0.00;0.00;;;;;;;;;;4974255;28;20698;-69
2022/04/04 14:11:20;;;;;;;0.00;0.00;;;;;;;;;;4965906;28;20198;-69
2022/04/04 14:13:49;;;;;;;0.00;0.00;;;;;;;;;;4954427;28;20195;-69
2022/04/04 14:16:16;;;;;;;0.00;0.00;;;;;;;;;;4955878;28;20203;-69
2022/04/04 14:18:44;;;;;;;0.00;0.00;;;;;;;;;;4954559;28;20210;-69
2022/04/04 14:21:14;;;;;;;0.00;0.00;;;;;;;;;;4955097;28;20205;-69
2022/04/04 14:23:43;;;;;;;0.00;0.00;;;;;;;;;;4955663;28;20259;-69
2022/04/04 14:26:11;;;;;;;0.00;0.00;;;;;;;;;;4956021;28;20601;-69
2022/04/04 14:28:39;;;;;;;0.00;0.00;;;;;;;;;;4954277;28;20230;-68
2022/04/04 14:31:06;;;;;;;0.00;0.00;;;;;;;;;;4954893;28;20204;-68
2022/04/04 14:33:34;;;;;;;0.00;0.00;;;;;;;;;;4955179;29;20210;-70
2022/04/04 14:36:03;;;;;;;0.00;0.00;;;;;;;;;;4955508;28;20203;-68
2022/04/04 14:38:35;;;;;;;0.00;0.00;;;;;;;;;;4955593;28;20199;-68
2022/04/04 14:41:03;;;;;;;0.00;0.00;;;;;;;;;;4953886;28;20198;-68
2022/04/04 14:43:31;;;;;;;0.00;0.00;;;;;;;;;;4954274;28;20195;-68
2022/04/04 14:45:59;;;;;;;0.00;0.00;;;;;;;;;;4967716;28;20557;-68
2022/04/04 14:48:26;;;;;;;0.00;0.00;;;;;;;;;;4956339;28;20568;-68
2022/04/04 14:50:53;;;;;;;0.00;0.00;;;;;;;;;;4967091;28;20205;-70
2022/04/04 14:53:21;;;;;;;0.00;0.00;;;;;;;;;;4952764;28;20290;-69
2022/04/04 14:55:50;;;;;;;0.00;0.00;;;;;;;;;;4954381;28;20233;-69
2022/04/04 14:58:17;;;;;;;0.00;0.00;;;;;;;;;;4955202;28;20199;-69
2022/04/04 15:00:44;;;;;;;0.00;0.00;;;;;;;;;;4955977;28;20198;-69
2022/04/04 15:03:12;;;;;;;0.00;0.00;;;;;;;;;;4954240;28;20671;-69
2022/04/04 15:05:39;;;;;;;0.00;0.00;;;;;;;;;;4966493;28;20199;-70
2022/04/04 15:08:07;;;;;;;0.00;0.00;;;;;;;;;;4968072;28;20781;-70
2022/04/04 15:10:35;;;;;;;0.00;0.00;;;;;;;;;;4970347;28;20194;-71
2022/04/04 15:13:04;;;;;;;0.00;0.00;;;;;;;;;;4970177;28;20198;-69